createdAt,value
2018-03-24T00:00:03.293Z,29.60
2018-03-24T00:02:30.750Z,27.83
2018-03-24T00:04:58.216Z,27.80
2018-03-24T00:07:25.709Z,29.03
2018-03-24T00:09:53.201Z,29.63
2018-03-24T00:12:20.705Z,29.33
2018-03-24T00:14:48.258Z,29.27
2018-03-24T00:17:15.743Z,32.40
2018-03-24T00:19:43.211Z,28.93
2018-03-24T00:22:10.753Z,30.03
2018-03-24T00:24:38.216Z,29.00
2018-03-24T00:27:06.356Z,30.23
2018-03-24T00:29:33.845Z,30.37
2018-03-24T00:32:01.355Z,27.47
2018-03-24T00:34:28.897Z,30.73
2018-03-24T00:36:56.352Z,29.10
2018-03-24T00:39:23.844Z,29.87
2018-03-24T00:41:51.332Z,30.93
2018-03-24T00:44:18.853Z,29.50
2018-03-24T00:46:46.381Z,30.63
2018-03-24T00:49:14.774Z,31.97
2018-03-24T00:51:42.604Z,30.97
2018-03-24T00:54:10.711Z,30.67
2018-03-24T00:56:38.264Z,30.20
2018-03-24T00:59:06.314Z,30.67
2018-03-24T01:01:34.439Z,30.80
2018-03-24T01:04:01.931Z,30.07
2018-03-24T01:06:30.307Z,30.30
2018-03-24T01:08:57.862Z,33.33
2018-03-24T01:11:27.694Z,32.00
2018-03-24T01:13:55.185Z,32.27
2018-03-24T01:16:22.648Z,32.00
2018-03-24T01:18:50.118Z,32.93
2018-03-24T01:21:17.595Z,31.80
2018-03-24T01:23:45.052Z,33.57
2018-03-24T01:26:12.554Z,34.10
2018-03-24T01:28:40.877Z,32.93
2018-03-24T01:31:08.429Z,31.10
2018-03-24T01:33:35.901Z,33.70
2018-03-24T01:36:03.367Z,34.40
2018-03-24T01:38:30.844Z,34.40
2018-03-24T01:40:58.344Z,33.37
2018-03-24T01:43:25.797Z,35.10
2018-03-24T01:45:53.260Z,35.43
2018-03-24T01:48:20.752Z,33.53
2018-03-24T01:50:48.223Z,35.20
2018-03-24T01:53:15.721Z,35.23
2018-03-24T01:55:43.193Z,35.00
2018-03-24T01:58:10.661Z,36.00
2018-03-24T02:00:38.140Z,33.70
2018-03-24T02:03:05.671Z,34.70
2018-03-24T02:05:33.164Z,34.60
2018-03-24T02:08:00.629Z,33.73
2018-03-24T02:10:28.152Z,36.67
2018-03-24T02:12:55.629Z,34.00
2018-03-24T02:15:23.088Z,35.07
2018-03-24T02:17:50.546Z,37.10
2018-03-24T02:20:18.024Z,37.47
2018-03-24T02:22:45.495Z,41.33
2018-03-24T02:25:23.748Z,39.20
2018-03-24T02:27:51.212Z,41.80
2018-03-24T02:30:18.672Z,40.90
2018-03-24T02:32:46.221Z,41.53
2018-03-24T02:35:13.795Z,42.40
2018-03-24T02:37:41.279Z,46.67
2018-03-24T02:40:08.762Z,42.23
2018-03-24T02:42:36.296Z,42.77
2018-03-24T02:45:03.764Z,44.60
2018-03-24T02:47:31.234Z,43.47
2018-03-24T02:49:58.702Z,41.93
2018-03-24T02:52:26.189Z,42.77
2018-03-24T02:54:53.671Z,42.23
2018-03-24T02:57:21.171Z,42.90
2018-03-24T02:59:48.639Z,44.90
2018-03-24T03:02:16.123Z,44.23
2018-03-24T03:04:43.596Z,42.40
2018-03-24T03:07:11.080Z,44.83
2018-03-24T03:09:38.556Z,48.27
2018-03-24T03:12:06.007Z,45.33
2018-03-24T03:14:33.533Z,45.63
2018-03-24T03:17:00.991Z,45.93
2018-03-24T03:19:28.464Z,45.67
2018-03-24T03:21:56.008Z,48.43
2018-03-24T03:24:23.484Z,48.30
2018-03-24T03:26:50.921Z,46.57
2018-03-24T03:29:18.424Z,45.50
2018-03-24T03:31:50.448Z,47.60
2018-03-24T03:34:17.960Z,46.63
2018-03-24T03:36:45.443Z,48.00
2018-03-24T03:39:12.901Z,47.40
2018-03-24T03:41:40.363Z,48.17
2018-03-24T03:44:07.838Z,49.93
2018-03-24T03:46:35.363Z,48.17
2018-03-24T03:49:02.839Z,50.10
2018-03-24T03:51:30.308Z,51.13
2018-03-24T03:53:57.773Z,50.23
2018-03-24T03:56:25.248Z,49.10
2018-03-24T03:58:52.717Z,49.10
2018-03-24T04:01:20.246Z,48.47
2018-03-24T04:03:47.734Z,49.83
2018-03-24T04:06:15.376Z,49.47
2018-03-24T04:08:42.883Z,48.47
2018-03-24T04:11:10.326Z,48.03
2018-03-24T04:13:37.979Z,49.10
2018-03-24T04:16:05.638Z,47.13
2018-03-24T04:18:33.141Z,48.87
2018-03-24T04:21:00.557Z,48.57
2018-03-24T04:23:29.447Z,47.10
2018-03-24T04:25:56.925Z,47.20
2018-03-24T04:28:24.378Z,47.80
2018-03-24T04:30:51.856Z,47.07
2018-03-24T04:33:19.297Z,45.63
2018-03-24T04:35:46.785Z,47.43
2018-03-24T04:38:14.267Z,44.87
2018-03-24T04:40:41.722Z,46.30
2018-03-24T04:43:09.186Z,47.80
2018-03-24T04:45:36.639Z,49.90
2018-03-24T04:48:04.105Z,49.07
2018-03-24T04:50:31.571Z,47.63
2018-03-24T04:52:59.016Z,46.67
2018-03-24T04:55:26.494Z,46.83
2018-03-24T04:57:54.054Z,48.27
2018-03-24T05:00:21.511Z,45.20
2018-03-24T05:02:49.016Z,46.77
2018-03-24T05:05:16.516Z,48.33
2018-03-24T05:07:43.971Z,45.80
2018-03-24T05:10:11.468Z,50.13
2018-03-24T05:12:38.941Z,46.27
2018-03-24T05:15:06.616Z,47.57
2018-03-24T05:17:34.060Z,46.57
2018-03-24T05:20:01.523Z,49.40
2018-03-24T05:22:29.013Z,46.00
2018-03-24T05:24:56.478Z,46.53
2018-03-24T05:27:23.915Z,45.10
2018-03-24T05:29:51.418Z,49.47
2018-03-24T05:32:18.872Z,48.33
2018-03-24T05:34:46.536Z,47.40
2018-03-24T05:37:14.018Z,47.27
2018-03-24T05:39:41.520Z,48.17
2018-03-24T05:42:08.984Z,46.17
2018-03-24T05:44:36.450Z,47.47
2018-03-24T05:47:03.958Z,49.20
2018-03-24T05:49:31.422Z,49.33
2018-03-24T05:51:58.895Z,50.10
2018-03-24T05:54:26.377Z,49.37
2018-03-24T05:56:54.772Z,50.43
2018-03-24T05:59:22.222Z,51.93
2018-03-24T06:01:49.707Z,51.03
2018-03-24T06:04:17.233Z,52.70
2018-03-24T06:06:44.731Z,49.80
2018-03-24T06:09:12.196Z,48.20
2018-03-24T06:11:40.599Z,51.57
2018-03-24T06:14:08.111Z,50.03
2018-03-24T06:16:35.588Z,49.70
2018-03-24T06:19:03.082Z,52.10
2018-03-24T06:21:30.615Z,52.73
2018-03-24T06:23:58.275Z,52.50
2018-03-24T06:26:25.769Z,53.53
2018-03-24T06:28:53.300Z,52.10
2018-03-24T06:31:20.784Z,52.57
2018-03-24T06:33:48.292Z,53.67
2018-03-24T06:36:16.282Z,54.13
2018-03-24T06:38:43.790Z,54.27
2018-03-24T06:41:11.274Z,55.23
2018-03-24T06:43:39.256Z,51.77
2018-03-24T06:46:06.723Z,53.67
2018-03-24T06:48:34.278Z,55.30
2018-03-24T06:51:01.816Z,54.20
2018-03-24T06:53:29.270Z,56.33
2018-03-24T06:55:58.391Z,84.87
2018-03-24T06:58:25.888Z,79.80
2018-03-24T07:00:53.380Z,66.17
2018-03-24T07:03:20.870Z,57.63
2018-03-24T07:05:48.327Z,56.30
2018-03-24T07:08:15.826Z,54.80
2018-03-24T07:10:43.288Z,56.60
2018-03-24T07:13:10.764Z,57.03
2018-03-24T07:15:38.237Z,58.80
2018-03-24T07:18:05.757Z,56.80
2018-03-24T07:20:33.310Z,55.40
2018-03-24T07:23:01.131Z,60.80
2018-03-24T07:25:28.600Z,58.27
2018-03-24T07:27:56.128Z,57.30
2018-03-24T07:30:23.623Z,58.23
2018-03-24T07:32:51.091Z,56.70
2018-03-24T07:35:18.617Z,58.67
2018-03-24T07:37:46.094Z,57.77
2018-03-24T07:40:13.573Z,59.57
2018-03-24T07:42:41.096Z,56.30
2018-03-24T07:45:08.616Z,62.80
2018-03-24T07:47:36.243Z,58.60
2018-03-24T07:50:03.720Z,61.27
2018-03-24T07:52:31.183Z,60.23
2018-03-24T07:54:58.688Z,60.17
2018-03-24T07:57:27.476Z,59.10
2018-03-24T07:59:55.082Z,59.70
2018-03-24T08:02:22.599Z,60.57
2018-03-24T08:04:50.065Z,59.00
2018-03-24T08:07:17.602Z,64.03
2018-03-24T08:09:45.129Z,59.87
2018-03-24T08:12:12.580Z,61.37
2018-03-24T08:14:40.123Z,57.83
2018-03-24T08:17:07.745Z,61.70
2018-03-24T08:19:35.671Z,58.23
2018-03-24T08:22:03.175Z,57.00
2018-03-24T08:24:30.942Z,59.50
2018-03-24T08:26:59.629Z,57.67
2018-03-24T08:29:27.158Z,58.90
2018-03-24T08:31:54.652Z,59.50
2018-03-24T08:34:22.168Z,59.33
2018-03-24T08:36:49.648Z,59.70
2018-03-24T08:39:17.198Z,56.40
2018-03-24T08:41:44.766Z,57.87
2018-03-24T08:44:12.293Z,54.90
2018-03-24T08:46:39.928Z,51.87
2018-03-24T08:49:07.436Z,49.07
2018-03-24T08:51:35.025Z,49.83
2018-03-24T08:54:02.478Z,50.03
2018-03-24T08:56:29.967Z,52.87
2018-03-24T08:58:57.628Z,52.97
2018-03-24T09:01:25.197Z,50.70
2018-03-24T09:03:52.799Z,49.70
2018-03-24T09:06:20.289Z,52.00
2018-03-24T09:08:47.827Z,53.30
2018-03-24T09:11:15.329Z,53.57
2018-03-24T09:13:42.842Z,49.60
2018-03-24T09:16:10.425Z,48.77
2018-03-24T09:18:37.906Z,45.30
2018-03-24T09:21:05.415Z,44.73
2018-03-24T09:23:32.930Z,48.63
2018-03-24T09:26:00.444Z,47.90
2018-03-24T09:28:27.968Z,47.23
2018-03-24T09:30:55.483Z,48.00
2018-03-24T09:33:22.965Z,43.80
2018-03-24T09:35:50.435Z,40.10
2018-03-24T09:38:17.941Z,33.90
2018-03-24T09:40:45.431Z,35.80
2018-03-24T09:43:12.951Z,38.73
2018-03-24T09:45:40.414Z,39.27
2018-03-24T09:48:07.922Z,38.03
2018-03-24T09:50:35.414Z,34.90
2018-03-24T09:53:02.871Z,35.57
2018-03-24T09:55:30.353Z,36.43
2018-03-24T09:57:57.855Z,32.03
2018-03-24T10:00:25.321Z,32.90
2018-03-24T10:02:52.872Z,34.70
2018-03-24T10:05:20.332Z,34.63
2018-03-24T10:07:47.819Z,32.87
2018-03-24T10:10:15.337Z,34.10
2018-03-24T10:12:42.839Z,34.10
2018-03-24T10:15:11.072Z,35.57
2018-03-24T10:17:38.563Z,33.97
2018-03-24T10:20:06.115Z,34.27
2018-03-24T10:22:55.086Z,30.90
2018-03-24T10:25:22.595Z,33.07
2018-03-24T10:27:50.151Z,33.23
2018-03-24T10:30:17.626Z,31.60
2018-03-24T10:32:45.155Z,30.53
2018-03-24T10:35:12.633Z,25.97
2018-03-24T10:37:45.587Z,27.27
2018-03-24T10:40:13.213Z,29.50
2018-03-24T10:42:40.721Z,29.87
2018-03-24T10:45:08.792Z,31.60
2018-03-24T10:47:36.270Z,31.13
2018-03-24T10:50:03.767Z,31.60
2018-03-24T10:52:31.254Z,32.33
2018-03-24T10:54:59.469Z,30.23
2018-03-24T10:57:27.844Z,30.07
2018-03-24T10:59:55.306Z,28.43
2018-03-24T11:02:22.780Z,29.30
2018-03-24T11:04:50.295Z,28.77
2018-03-24T11:07:17.783Z,27.60
2018-03-24T11:09:45.254Z,28.13
2018-03-24T11:12:12.746Z,28.20
2018-03-24T11:14:40.260Z,25.53
2018-03-24T11:17:07.759Z,26.83
2018-03-24T11:19:35.239Z,23.73
2018-03-24T11:22:02.717Z,22.70
2018-03-24T11:24:30.279Z,24.37
2018-03-24T11:26:58.643Z,24.30
2018-03-24T11:29:26.114Z,25.03
2018-03-24T11:31:53.594Z,22.50
2018-03-24T11:34:21.141Z,21.70
2018-03-24T11:36:49.190Z,20.20
2018-03-24T11:39:16.712Z,21.07
2018-03-24T11:41:44.260Z,21.77
2018-03-24T11:44:11.727Z,18.67
2018-03-24T11:46:39.257Z,17.93
2018-03-24T11:49:07.011Z,18.43
2018-03-24T11:51:34.475Z,16.73
2018-03-24T11:54:02.014Z,16.37
2018-03-24T11:56:29.497Z,17.70
2018-03-24T11:58:57.083Z,17.80
2018-03-24T12:01:25.706Z,16.23
2018-03-24T12:03:53.176Z,16.30
2018-03-24T12:06:20.637Z,15.90
2018-03-24T12:08:48.155Z,15.77
2018-03-24T12:11:15.619Z,16.47
2018-03-24T12:13:43.293Z,16.60
2018-03-24T12:16:10.866Z,16.57
2018-03-24T12:18:38.407Z,16.00
2018-03-24T12:21:05.863Z,16.03
2018-03-24T12:23:33.317Z,17.10
2018-03-24T12:26:00.819Z,15.60
2018-03-24T12:28:28.315Z,15.37
2018-03-24T12:30:55.763Z,16.07
2018-03-24T12:33:23.246Z,13.50
2018-03-24T12:35:50.702Z,14.63
2018-03-24T12:38:18.347Z,14.20
2018-03-24T12:40:45.812Z,15.07
2018-03-24T12:43:13.283Z,16.00
2018-03-24T12:45:40.777Z,17.50
2018-03-24T12:48:08.236Z,15.37
2018-03-24T12:50:35.736Z,17.00
2018-03-24T12:53:03.245Z,16.10
2018-03-24T12:55:30.752Z,16.83
2018-03-24T12:57:58.393Z,15.13
2018-03-24T13:00:25.982Z,15.83
2018-03-24T13:02:53.443Z,15.97
2018-03-24T13:05:20.969Z,16.60
2018-03-24T13:07:49.180Z,16.17
2018-03-24T13:10:18.309Z,15.67
2018-03-24T13:12:45.783Z,15.17
2018-03-24T13:15:13.279Z,16.60
2018-03-24T13:17:40.764Z,18.10
2018-03-24T13:20:08.228Z,17.20
2018-03-24T13:22:35.764Z,16.37
2018-03-24T13:25:03.264Z,17.80
2018-03-24T13:27:30.781Z,16.43
2018-03-24T13:29:58.268Z,17.03
2018-03-24T13:32:25.799Z,16.37
2018-03-24T13:34:53.252Z,17.50
2018-03-24T13:37:20.712Z,17.20
2018-03-24T13:39:48.191Z,17.63
2018-03-24T13:42:15.657Z,18.07
2018-03-24T13:44:43.158Z,17.70
2018-03-24T13:47:10.666Z,18.90
2018-03-24T13:49:38.133Z,19.77
2018-03-24T13:52:06.876Z,18.07
2018-03-24T13:54:34.403Z,17.97
2018-03-24T13:57:02.006Z,17.00
2018-03-24T13:59:29.468Z,19.60
2018-03-24T14:01:56.945Z,19.90
2018-03-24T14:04:24.407Z,20.10
2018-03-24T14:06:51.863Z,20.10
2018-03-24T14:09:19.347Z,19.90
2018-03-24T14:11:46.867Z,19.77
2018-03-24T14:14:14.307Z,20.37
2018-03-24T14:16:41.799Z,20.00
2018-03-24T14:19:09.279Z,18.73
2018-03-24T14:21:36.755Z,19.67
2018-03-24T14:24:04.216Z,21.27
2018-03-24T14:26:31.689Z,20.50
2018-03-24T14:28:59.208Z,22.33
2018-03-24T14:31:26.707Z,21.80
2018-03-24T14:33:54.180Z,22.43
2018-03-24T14:36:21.658Z,22.10
2018-03-24T14:38:49.128Z,21.83
2018-03-24T14:41:16.648Z,21.90
2018-03-24T14:43:44.147Z,22.43
2018-03-24T14:46:11.672Z,24.37
2018-03-24T14:48:39.164Z,24.33
2018-03-24T14:51:07.447Z,23.87
2018-03-24T14:53:34.952Z,21.47
2018-03-24T14:56:02.435Z,21.47
2018-03-24T14:58:29.926Z,22.87
2018-03-24T15:00:57.444Z,22.87
2018-03-24T15:03:24.939Z,23.17
2018-03-24T15:05:52.406Z,22.93
2018-03-24T15:08:20.704Z,23.00
2018-03-24T15:10:48.272Z,24.23
2018-03-24T15:13:15.761Z,24.57
2018-03-24T15:15:43.234Z,23.67
2018-03-24T15:18:10.702Z,26.30
2018-03-24T15:20:38.411Z,24.60
2018-03-24T15:23:05.885Z,26.27
2018-03-24T15:25:33.349Z,23.80
2018-03-24T15:28:00.836Z,24.23
2018-03-24T15:30:40.128Z,25.10
2018-03-24T15:33:19.440Z,26.53
2018-03-24T15:35:58.720Z,25.70
2018-03-24T15:38:26.228Z,26.07
2018-03-24T15:40:53.720Z,25.50
2018-03-24T15:43:21.188Z,26.53
2018-03-24T15:45:48.655Z,26.57
2018-03-24T15:48:16.131Z,27.73
2018-03-24T15:50:43.593Z,28.13
2018-03-24T15:53:11.058Z,25.57
2018-03-24T15:55:38.597Z,26.70
2018-03-24T15:58:06.092Z,25.90
2018-03-24T16:00:34.510Z,26.30
2018-03-24T16:03:02.010Z,27.30
2018-03-24T16:05:29.566Z,27.83
2018-03-24T16:07:57.123Z,28.40
2018-03-24T16:10:24.802Z,26.00
2018-03-24T16:12:52.304Z,27.63
2018-03-24T16:15:19.813Z,25.90
2018-03-24T16:17:47.303Z,24.43
2018-03-24T16:20:14.862Z,26.37
2018-03-24T16:22:42.345Z,27.90
2018-03-24T16:25:09.797Z,26.60
2018-03-24T16:27:37.275Z,25.47
2018-03-24T16:30:04.783Z,23.57
2018-03-24T16:32:32.248Z,24.67
2018-03-24T16:34:59.734Z,23.23
2018-03-24T16:37:27.199Z,21.90
2018-03-24T16:39:55.327Z,23.70
2018-03-24T16:42:22.847Z,23.10
2018-03-24T16:44:50.302Z,22.33
2018-03-24T16:47:18.984Z,25.37
2018-03-24T16:49:46.568Z,24.87
2018-03-24T16:52:14.046Z,22.97
2018-03-24T16:54:41.603Z,25.10
2018-03-24T16:57:09.121Z,25.27
2018-03-24T16:59:36.610Z,25.33
2018-03-24T17:02:04.141Z,24.37
2018-03-24T17:04:31.647Z,24.57
2018-03-24T17:06:59.188Z,23.90
2018-03-24T17:09:26.835Z,25.30
2018-03-24T17:11:54.349Z,23.80
2018-03-24T17:14:21.871Z,24.00
2018-03-24T17:16:49.372Z,24.07
2018-03-24T17:19:16.966Z,24.73
2018-03-24T17:21:44.460Z,23.10
2018-03-24T17:24:11.957Z,24.17
2018-03-24T17:26:39.536Z,22.87
2018-03-24T17:29:08.172Z,23.23
2018-03-24T17:31:35.800Z,23.00
2018-03-24T17:34:03.329Z,23.80
2018-03-24T17:36:30.864Z,22.90
2018-03-24T17:38:58.391Z,23.10
2018-03-24T17:41:25.865Z,22.87
2018-03-24T17:43:53.348Z,23.50
2018-03-24T17:46:20.824Z,23.30
2018-03-24T17:48:48.363Z,22.67
2018-03-24T17:51:15.908Z,24.40
2018-03-24T17:53:43.374Z,23.03
2018-03-24T17:56:10.892Z,24.63
2018-03-24T17:58:38.367Z,24.30
2018-03-24T18:01:05.879Z,26.90
2018-03-24T18:03:33.404Z,24.30
2018-03-24T18:06:00.922Z,25.77
2018-03-24T18:08:28.390Z,23.67
2018-03-24T18:10:55.882Z,27.17
2018-03-24T18:13:23.883Z,25.17
2018-03-24T18:15:51.345Z,28.10
2018-03-24T18:18:18.849Z,29.20
2018-03-24T18:20:46.353Z,28.77
2018-03-24T18:23:13.863Z,23.07
2018-03-24T18:25:41.443Z,25.83
2018-03-24T18:28:09.110Z,24.20
2018-03-24T18:30:36.884Z,23.07
2018-03-24T18:33:04.415Z,23.23
2018-03-24T18:35:31.330Z,23.20
2018-03-24T18:37:58.972Z,22.63
2018-03-24T18:40:26.753Z,21.13
2018-03-24T18:42:54.287Z,20.40
2018-03-24T18:45:21.796Z,21.87
2018-03-24T18:47:49.312Z,20.70
2018-03-24T18:50:16.881Z,19.83
2018-03-24T18:52:44.992Z,21.23
2018-03-24T18:55:12.624Z,19.53
2018-03-24T18:57:40.116Z,20.57
2018-03-24T19:00:07.765Z,20.10
2018-03-24T19:02:35.582Z,20.27
2018-03-24T19:05:03.299Z,19.57
2018-03-24T19:07:30.767Z,20.63
2018-03-24T19:09:58.498Z,20.60
2018-03-24T19:12:26.061Z,21.40
2018-03-24T19:14:53.575Z,21.40
2018-03-24T19:17:21.064Z,21.90
2018-03-24T19:19:48.549Z,20.00
2018-03-24T19:22:16.112Z,19.87
2018-03-24T19:24:43.688Z,21.87
2018-03-24T19:27:11.169Z,20.37
2018-03-24T19:29:38.650Z,21.57
2018-03-24T19:32:06.112Z,24.47
2018-03-24T19:34:33.903Z,22.90
2018-03-24T19:37:01.438Z,23.43
2018-03-24T19:39:29.111Z,24.00
2018-03-24T19:41:56.817Z,22.80
2018-03-24T19:44:24.327Z,23.53
2018-03-24T19:46:51.800Z,24.03
2018-03-24T19:49:19.312Z,25.80
2018-03-24T19:51:46.784Z,23.40
2018-03-24T19:54:14.505Z,25.07
2018-03-24T19:56:42.289Z,24.20
2018-03-24T19:59:09.917Z,23.43
2018-03-24T20:01:37.421Z,26.10
2018-03-24T20:04:05.192Z,26.23
2018-03-24T20:06:32.725Z,24.37
2018-03-24T20:09:00.271Z,24.97
2018-03-24T20:11:28.069Z,25.00
2018-03-24T20:13:55.920Z,26.30
2018-03-24T20:16:23.674Z,26.73
2018-03-24T20:18:51.464Z,28.07
2018-03-24T20:21:19.230Z,28.03
2018-03-24T20:23:46.996Z,28.03
2018-03-24T20:26:14.530Z,27.13
2018-03-24T20:28:42.034Z,28.33
2018-03-24T20:31:09.672Z,28.37
2018-03-24T20:33:38.129Z,27.70
2018-03-24T20:36:05.867Z,28.47
2018-03-24T20:38:33.484Z,28.43
2018-03-24T20:41:00.996Z,27.87
2018-03-24T20:43:29.741Z,28.87
2018-03-24T20:45:57.284Z,28.33
2018-03-24T20:48:24.732Z,26.50
2018-03-24T20:50:52.198Z,28.83
2018-03-24T20:53:19.695Z,26.97
2018-03-24T20:55:47.311Z,29.20
2018-03-24T20:58:15.034Z,28.93
2018-03-24T21:00:42.674Z,28.93
2018-03-24T21:03:10.260Z,28.70
2018-03-24T21:05:37.872Z,28.20
2018-03-24T21:08:05.483Z,29.10
2018-03-24T21:10:33.153Z,28.70
2018-03-24T21:13:00.834Z,30.17
2018-03-24T21:15:28.426Z,29.03
2018-03-24T21:17:56.088Z,30.03
2018-03-24T21:20:24.016Z,28.80
2018-03-24T21:22:51.822Z,29.60
2018-03-24T21:25:19.515Z,28.80
2018-03-24T21:27:48.289Z,31.60
2018-03-24T21:30:16.020Z,28.90
2018-03-24T21:32:43.690Z,29.07
2018-03-24T21:35:11.425Z,28.83
2018-03-24T21:37:39.061Z,30.23
2018-03-24T21:40:06.638Z,29.90
2018-03-24T21:42:34.198Z,30.03
2018-03-24T21:45:01.730Z,29.13
2018-03-24T21:47:29.294Z,28.63
2018-03-24T21:49:57.049Z,30.30
2018-03-24T21:52:24.594Z,29.70
2018-03-24T21:54:52.228Z,29.35
2018-03-24T21:57:19.784Z,29.43
2018-03-24T21:59:47.293Z,30.60
2018-03-24T22:02:14.770Z,29.60
2018-03-24T22:04:42.268Z,27.90
2018-03-24T22:07:09.741Z,30.80
2018-03-24T22:09:37.276Z,29.93
2018-03-24T22:12:04.749Z,30.00
2018-03-24T22:14:32.192Z,30.77
2018-03-24T22:17:01.154Z,31.30
2018-03-24T22:19:28.624Z,31.48
2018-03-24T22:21:56.155Z,32.38
2018-03-24T22:24:23.629Z,30.02
2018-03-24T22:26:51.138Z,33.13
2018-03-24T22:29:18.660Z,30.12
2018-03-24T22:31:46.160Z,31.95
2018-03-24T22:34:13.667Z,30.33
2018-03-24T22:36:41.213Z,32.70
2018-03-24T22:39:08.749Z,32.58
2018-03-24T22:41:36.245Z,31.95
2018-03-24T22:44:03.729Z,31.37
2018-03-24T22:46:31.190Z,31.87
2018-03-24T22:48:58.667Z,33.22
2018-03-24T22:51:26.285Z,32.88
2018-03-24T22:53:53.783Z,31.55
2018-03-24T22:56:21.290Z,31.98
2018-03-24T22:58:48.754Z,32.30
2018-03-24T23:01:22.252Z,32.10
2018-03-24T23:03:49.723Z,30.92
2018-03-24T23:06:17.199Z,32.25
2018-03-24T23:08:44.741Z,33.58
2018-03-24T23:11:12.165Z,33.33
2018-03-24T23:13:39.655Z,31.87
2018-03-24T23:16:07.185Z,32.78
2018-03-24T23:18:34.659Z,30.60
2018-03-24T23:21:02.120Z,33.20
2018-03-24T23:23:29.583Z,32.55
2018-03-24T23:25:57.159Z,33.47
2018-03-24T23:28:25.094Z,32.97
2018-03-24T23:30:55.527Z,31.60
2018-03-24T23:33:23.155Z,33.58
2018-03-24T23:35:50.639Z,32.65
2018-03-24T23:38:18.090Z,30.98
2018-03-24T23:40:45.777Z,31.35
2018-03-24T23:43:13.249Z,31.35
2018-03-24T23:45:40.773Z,30.42
2018-03-24T23:48:08.257Z,30.33
2018-03-24T23:50:35.735Z,32.15
2018-03-24T23:53:03.200Z,30.10
2018-03-24T23:55:30.653Z,30.42
2018-03-24T23:57:58.151Z,31.30
